Time;durP1;ratioP1;P1;durP2;ratioP2;P2;SDS_P1;SDS_P2;PMS_P1;PMS_P2;Temp;Humidity;BMP_temperature;BMP_pressure;BME280_temperature;BME280_humidity;BME280_pressure;Samples;Min_cycle;Max_cycle;Signal;HPM_P1;HPM_P2
2021/05/21 00:01:53;;;;;;;14.85;9.70;;;;;;;7.88;66.69;100298.84;2111593;84;27708;-61
2021/05/21 00:04:55;;;;;;;16.62;11.68;;;;;;;7.83;66.70;100296.36;2164313;81;28988;-59
2021/05/21 00:07:57;;;;;;;15.03;9.00;;;;;;;7.78;66.85;100291.66;2160461;82;31184;-58
2021/05/21 00:10:59;;;;;;;16.42;9.70;;;;;;;7.74;66.81;100283.36;2159166;82;34099;-62
2021/05/21 00:14:01;;;;;;;12.37;7.90;;;;;;;7.71;66.81;100278.13;2160274;82;29330;-60
2021/05/21 00:17:03;;;;;;;16.62;9.53;;;;;;;7.69;66.81;100276.02;2189564;80;27622;-59
2021/05/21 00:20:09;;;;;;;17.60;10.95;;;;;;;7.67;66.95;100272.05;2214619;80;28977;-58
2021/05/21 00:23:11;;;;;;;18.05;11.40;;;;;;;7.67;67.01;100271.20;2214608;80;32124;-59
2021/05/21 00:26:13;;;;;;;19.17;11.48;;;;;;;7.68;67.16;100269.80;2199592;80;34128;-59
2021/05/21 00:29:15;;;;;;;16.50;10.30;;;;;;;7.68;67.31;100271.61;2174465;81;29633;-59
2021/05/21 00:32:16;;;;;;;16.25;9.83;;;;;;;7.69;67.36;100269.35;2174740;81;27577;-60
2021/05/21 00:35:18;;;;;;;16.37;9.78;;;;;;;7.69;67.74;100266.20;2174839;80;28980;-61
2021/05/21 00:38:20;;;;;;;12.90;8.73;;;;;;;7.66;67.71;100260.98;2174541;81;32145;-59
2021/05/21 00:41:22;;;;;;;12.58;8.38;;;;;;;7.65;67.75;100265.91;2174467;81;33342;-60
2021/05/21 00:44:25;;;;;;;16.30;7.85;;;;;;;7.64;68.02;100263.31;2181950;80;30476;-60
2021/05/21 00:47:28;;;;;;;10.98;7.50;;;;;;;7.63;68.28;100264.23;2185086;81;27506;-59
2021/05/21 00:50:30;;;;;;;9.85;7.72;;;;;;;7.65;68.24;100263.72;2184770;81;28538;-60
2021/05/21 00:53:32;;;;;;;14.25;8.50;;;;;;;7.68;68.30;100256.95;2184739;81;31437;-61
2021/05/21 00:56:34;;;;;;;12.47;8.60;;;;;;;7.73;68.33;100259.84;2180143;81;33668;-59
2021/05/21 00:59:36;;;;;;;15.75;8.45;;;;;;;7.76;68.26;100253.50;2181959;81;30663;-60
2021/05/21 01:02:38;;;;;;;15.00;9.60;;;;;;;7.77;68.28;100259.24;2148187;82;27644;-61
2021/05/21 01:05:39;;;;;;;16.93;9.93;;;;;;;7.77;68.25;100257.05;2194243;80;29319;-60
2021/05/21 01:08:41;;;;;;;14.15;9.65;;;;;;;7.77;68.25;100252.58;2184807;81;32060;-60
2021/05/21 01:11:43;;;;;;;14.25;10.03;;;;;;;7.78;68.25;100256.98;2183820;81;32972;-59
2021/05/21 01:14:53;;;;;;;13.83;9.40;;;;;;;7.76;68.37;100248.17;2184714;81;30521;-66
2021/05/21 01:17:55;;;;;;;15.60;8.95;;;;;;;7.72;68.40;100242.55;2214797;80;27558;-61
2021/05/21 01:20:57;;;;;;;13.62;8.20;;;;;;;7.70;68.37;100237.28;2176438;81;29074;-60
2021/05/21 01:24:00;;;;;;;14.20;9.05;;;;;;;7.69;68.35;100238.20;2181909;81;32114;-59
2021/05/21 01:27:03;;;;;;;13.75;9.58;;;;;;;7.69;68.46;100233.36;2168293;81;34065;-60
2021/05/21 01:30:08;;;;;;;13.20;9.10;;;;;;;7.70;68.49;100229.28;2193643;80;29288;-59
2021/05/21 01:33:11;;;;;;;14.85;9.30;;;;;;;7.73;68.60;100230.50;2147486;82;27603;-59
2021/05/21 01:36:13;;;;;;;18.77;10.80;;;;;;;7.74;68.55;100226.02;2182861;80;28599;-58
2021/05/21 01:39:15;;;;;;;14.35;9.65;;;;;;;7.74;68.52;100229.58;2185008;80;32140;-61
2021/05/21 01:42:18;;;;;;;12.20;9.18;;;;;;;7.75;68.48;100227.77;2145780;82;33195;-59
2021/05/21 01:45:20;;;;;;;15.03;10.15;;;;;;;7.74;68.52;100228.69;2143897;82;29334;-60
2021/05/21 01:48:22;;;;;;;17.37;10.23;;;;;;;7.73;68.60;100232.28;2149007;82;27541;-67
2021/05/21 01:51:24;;;;;;;16.23;10.75;;;;;;;7.72;68.73;100223.87;2183746;81;29230;-67
2021/05/21 01:54:29;;;;;;;16.07;9.48;;;;;;;7.67;68.64;100219.21;2130192;82;31956;-65
2021/05/21 01:57:35;;;;;;;17.40;10.40;;;;;;;7.66;68.56;100215.66;2128275;83;32531;-66
2021/05/21 02:00:35;;;;;;;15.43;10.40;;;;;;;7.64;68.53;100220.66;2129450;82;30642;-66
2021/05/21 02:03:37;;;;;;;19.70;10.58;;;;;;;7.63;68.55;100215.77;2129303;83;27591;-67
2021/05/21 02:06:39;;;;;;;23.73;11.85;;;;;;;7.63;68.60;100223.77;2101167;84;29744;-67
2021/05/21 02:10:02;;;;;;;24.90;11.18;;;;;;;7.63;68.64;100216.25;2110642;84;30811;-60
2021/05/21 02:13:03;;;;;;;20.57;11.65;;;;;;;7.60;68.63;100214.10;2138463;83;33406;-60
2021/05/21 02:16:06;;;;;;;19.05;11.73;;;;;;;7.56;68.69;100211.62;2122389;83;30485;-60
2021/05/21 02:19:08;;;;;;;21.45;11.22;;;;;;;7.52;68.69;100216.66;2129089;83;27521;-60
2021/05/21 02:22:11;;;;;;;20.50;11.53;;;;;;;7.47;68.67;100212.84;2093686;83;28637;-60
2021/05/21 02:25:14;;;;;;;19.40;11.33;;;;;;;7.42;68.70;100208.14;2075121;85;31427;-61
2021/05/21 02:28:16;;;;;;;20.97;11.33;;;;;;;7.38;68.69;100202.52;2102740;84;32936;-61
2021/05/21 02:31:19;;;;;;;18.15;10.20;;;;;;;7.34;68.82;100205.77;2102659;84;31398;-60
2021/05/21 02:34:21;;;;;;;16.57;10.80;;;;;;;7.32;68.90;100193.44;2102778;84;27544;-60
2021/05/21 02:37:22;;;;;;;20.35;12.00;;;;;;;7.33;69.08;100191.19;2102834;84;29737;-61
2021/05/21 02:40:24;;;;;;;20.72;11.63;;;;;;;7.35;69.26;100190.67;2102688;84;32099;-60
2021/05/21 02:43:26;;;;;;;16.95;11.15;;;;;;;7.40;69.51;100181.56;2102881;84;32739;-60
2021/05/21 02:46:28;;;;;;;19.37;11.60;;;;;;;7.45;69.52;100173.38;2127736;82;30465;-66
2021/05/21 02:49:31;;;;;;;18.77;12.05;;;;;;;7.52;69.71;100161.56;2136774;83;27610;-60
2021/05/21 02:52:33;;;;;;;20.95;12.90;;;;;;;7.58;69.76;100170.63;2137195;81;29020;-61
2021/05/21 02:55:35;;;;;;;19.85;12.40;;;;;;;7.63;69.81;100171.78;2179525;80;30735;-66
2021/05/21 02:58:37;;;;;;;18.35;10.78;;;;;;;7.67;69.80;100169.41;2178927;81;33530;-61
2021/05/21 03:01:39;;;;;;;16.82;10.78;;;;;;;7.70;69.71;100163.95;2179600;81;29358;-63
2021/05/21 03:04:40;;;;;;;18.75;10.72;;;;;;;7.74;69.72;100165.58;2179103;81;27617;-60
2021/05/21 03:07:42;;;;;;;18.90;10.58;;;;;;;7.78;69.59;100148.98;2179066;81;29580;-61
2021/05/21 03:10:44;;;;;;;18.30;11.40;;;;;;;7.81;69.61;100155.53;2179064;81;30897;-63
2021/05/21 03:13:47;;;;;;;18.48;12.18;;;;;;;7.85;69.54;100153.59;2179132;81;33279;-62
2021/05/21 03:16:48;;;;;;;17.02;11.03;;;;;;;7.88;69.61;100155.66;2197782;80;30108;-61
2021/05/21 03:19:50;;;;;;;19.37;11.50;;;;;;;7.94;69.73;100146.56;2179176;80;27548;-61
2021/05/21 03:22:52;;;;;;;16.35;11.00;;;;;;;8.00;69.87;100149.45;2178975;80;29403;-60
2021/05/21 03:25:53;;;;;;;15.30;11.08;;;;;;;8.06;70.02;100149.17;2192407;80;31416;-60
2021/05/21 03:28:55;;;;;;;15.53;10.00;;;;;;;8.10;70.22;100150.78;2208392;80;34092;-61
2021/05/21 03:31:57;;;;;;;13.03;9.40;;;;;;;8.15;70.21;100150.58;2208305;80;30621;-59
2021/05/21 03:34:59;;;;;;;16.12;9.95;;;;;;;8.21;70.22;100143.66;2187937;80;27607;-59
2021/05/21 03:38:02;;;;;;;14.43;10.08;;;;;;;8.30;70.39;100145.93;2168212;81;28624;-60
2021/05/21 03:41:06;;;;;;;17.25;10.50;;;;;;;8.37;70.39;100149.20;2172226;81;31368;-60
2021/05/21 03:44:08;;;;;;;14.73;9.23;;;;;;;8.46;70.36;100144.81;2177234;81;33337;-62
2021/05/21 03:47:11;;;;;;;15.80;9.73;;;;;;;8.56;70.36;100139.98;2177466;81;29711;-66
2021/05/21 03:50:17;;;;;;;18.75;10.03;;;;;;;8.64;70.29;100135.15;2177349;81;27574;-63
2021/05/21 03:53:20;;;;;;;19.87;10.08;;;;;;;8.70;70.27;100129.14;2173573;81;28641;-61
2021/05/21 03:56:22;;;;;;;14.98;10.58;;;;;;;8.77;70.23;100125.28;2143051;82;31573;-60
2021/05/21 03:59:23;;;;;;;13.98;9.45;;;;;;;8.79;70.19;100129.60;2137946;82;33322;-60
2021/05/21 04:02:25;;;;;;;13.68;8.73;;;;;;;8.85;70.23;100132.95;2161322;82;30097;-62
2021/05/21 04:05:32;;;;;;;13.50;9.38;;;;;;;8.93;70.26;100131.66;2173320;81;27637;-60
2021/05/21 04:08:32;;;;;;;12.75;8.60;;;;;;;9.06;70.32;100128.42;2160682;82;28870;-60
2021/05/21 04:11:38;;;;;;;15.48;9.80;;;;;;;9.22;70.30;100125.43;2175080;81;31001;-60
2021/05/21 04:14:40;;;;;;;13.20;9.00;;;;;;;9.41;70.45;100121.89;2173165;81;33567;-60
2021/05/21 04:17:42;;;;;;;14.93;9.78;;;;;;;9.59;70.35;100117.45;2173318;81;29540;-60
2021/05/21 04:20:44;;;;;;;13.38;8.93;;;;;;;9.76;70.34;100121.11;2177640;81;27578;-61
2021/05/21 04:23:46;;;;;;;14.93;8.53;;;;;;;9.88;70.21;100118.70;2143079;82;29785;-60
2021/05/21 04:26:48;;;;;;;13.53;8.30;;;;;;;10.01;70.01;100124.28;2143239;82;31409;-60
2021/05/21 04:29:49;;;;;;;11.83;8.20;;;;;;;10.10;69.91;100117.59;2163883;81;34081;-65
2021/05/21 04:32:53;;;;;;;10.00;7.50;;;;;;;10.19;69.83;100116.27;2182594;81;30390;-63
2021/05/21 04:35:54;;;;;;;10.48;8.23;;;;;;;10.28;69.72;100105.56;2140372;83;27472;-59
2021/05/21 04:38:56;;;;;;;14.10;8.48;;;;;;;10.39;69.62;100099.68;2164943;82;28677;-60
2021/05/21 04:41:58;;;;;;;14.20;8.48;;;;;;;10.51;69.55;100102.20;2173169;81;31372;-61
2021/05/21 04:44:59;;;;;;;10.00;7.83;;;;;;;10.61;69.28;100100.75;2173048;81;34032;-67
2021/05/21 04:48:01;;;;;;;14.20;8.28;;;;;;;10.72;69.26;100104.20;2173310;81;30466;-68
2021/05/21 04:51:03;;;;;;;11.97;8.08;;;;;;;10.88;69.24;100093.54;2181401;81;27556;-60
2021/05/21 04:54:05;;;;;;;15.13;8.18;;;;;;;11.13;69.38;100096.20;2162117;81;29165;-60
2021/05/21 04:57:07;;;;;;;12.47;8.13;;;;;;;11.40;68.93;100088.42;2181354;81;30700;-60
2021/05/21 05:00:11;;;;;;;12.70;7.58;;;;;;;11.74;69.01;100087.84;2171709;81;32776;-62
2021/05/21 05:03:17;;;;;;;8.83;6.87;;;;;;;12.22;69.13;100080.17;2174212;81;29318;-63
2021/05/21 05:06:17;;;;;;;9.98;6.35;;;;;;;12.78;68.29;100074.95;2175074;81;27630;-61
2021/05/21 05:09:19;;;;;;;14.30;6.67;;;;;;;13.35;67.77;100080.74;2174355;81;30741;-60
2021/05/21 05:12:21;;;;;;;7.90;6.53;;;;;;;13.97;67.52;100078.08;2169052;81;31360;-61
2021/05/21 05:15:23;;;;;;;15.00;6.50;;;;;;;14.63;66.70;100070.44;2194314;81;32856;-60
2021/05/21 05:18:25;;;;;;;10.80;5.85;;;;;;;15.33;65.61;100069.55;2194117;81;29339;-61
2021/05/21 05:21:28;;;;;;;7.78;6.15;;;;;;;16.39;65.37;100059.36;2185937;81;27718;-66
2021/05/21 05:24:34;;;;;;;8.45;5.80;;;;;;;17.45;64.14;100061.84;2178246;81;28602;-65
2021/05/21 05:27:36;;;;;;;8.23;6.12;;;;;;;18.42;62.91;100056.02;2178054;81;31759;-62
2021/05/21 05:30:39;;;;;;;5.62;5.03;;;;;;;19.46;61.18;100046.40;2180082;81;32939;-62
2021/05/21 05:33:41;;;;;;;9.05;5.45;;;;;;;20.23;59.74;100044.36;2193133;81;29291;-63
2021/05/21 05:36:46;;;;;;;10.25;5.03;;;;;;;20.70;58.02;100045.75;2188186;81;27550;-64
2021/05/21 05:39:48;;;;;;;6.92;4.95;;;;;;;21.13;57.07;100042.09;2211033;80;28953;-62
2021/05/21 05:42:50;;;;;;;5.65;4.65;;;;;;;21.57;55.74;100033.73;2184622;81;33123;-62
2021/05/21 05:45:52;;;;;;;8.95;5.28;;;;;;;22.18;55.08;100029.35;2184766;81;34115;-62
2021/05/21 05:48:53;;;;;;;6.60;4.37;;;;;;;22.96;54.50;100024.07;2177207;81;30517;-62
2021/05/21 05:51:55;;;;;;;5.83;5.00;;;;;;;23.78;53.13;100016.62;2171907;81;27555;-62
2021/05/21 05:54:57;;;;;;;5.80;4.60;;;;;;;24.66;51.99;100005.43;2158218;81;28959;-62
2021/05/21 05:57:59;;;;;;;6.58;3.80;;;;;;;25.55;50.14;99998.91;2137889;82;32157;-63
2021/05/21 06:01:01;;;;;;;4.45;3.92;;;;;;;26.22;49.09;99994.63;2137843;83;32965;-61
2021/05/21 06:04:04;;;;;;;7.00;4.00;;;;;;;26.62;46.88;99993.53;2137632;82;30200;-60
2021/05/21 06:07:06;;;;;;;9.68;3.58;;;;;;;26.44;45.81;99990.64;2137731;83;28190;-67
2021/05/21 06:10:10;;;;;;;5.25;3.67;;;;;;;26.29;45.78;99987.02;2137805;82;28981;-66
2021/05/21 06:13:12;;;;;;;;;;;;;;;26.06;44.60;99986.50;2140457;83;31700;-60
2021/05/21 06:16:14;;;;;;;3.62;3.33;;;;;;;25.85;44.37;99978.44;2136957;82;33884;-60
2021/05/21 06:19:16;;;;;;;5.75;3.75;;;;;;;25.57;43.83;99974.90;2137924;82;30396;-61
2021/05/21 06:22:18;;;;;;;8.43;3.33;;;;;;;25.21;43.42;99967.74;2138082;82;27620;-61
2021/05/21 06:25:38;;;;;;;4.17;2.87;;;;;;;24.96;43.56;99964.62;2136956;83;29793;-63
2021/05/21 06:28:27;;;;;;;5.20;3.40;;;;;;;24.69;42.53;99967.27;2196543;80;31087;-61
2021/05/21 06:31:29;;;;;;;4.20;3.35;;;;;;;24.43;42.69;99969.72;2198121;80;33369;-62
2021/05/21 06:34:30;;;;;;;3.92;2.52;;;;;;;24.28;42.72;99963.60;2198734;80;29672;-61
2021/05/21 06:37:32;;;;;;;2.80;2.60;;;;;;;24.28;43.00;99960.86;2181239;80;28108;-61
2021/05/21 06:40:34;;;;;;;7.10;3.10;;;;;;;24.43;43.07;99950.55;2131240;83;29787;-61
2021/05/21 06:43:36;;;;;;;6.92;2.70;;;;;;;24.71;42.48;99945.53;2117501;83;32181;-61
2021/05/21 06:46:37;;;;;;;4.12;2.60;;;;;;;25.31;42.36;99947.79;2129478;82;34110;-61
2021/05/21 06:49:39;;;;;;;3.20;2.85;;;;;;;26.00;42.08;99946.06;2133432;82;30355;-61
2021/05/21 06:52:42;;;;;;;4.22;2.90;;;;;;;26.62;40.93;99949.58;2172693;81;28047;-63
2021/05/21 06:55:44;;;;;;;2.50;2.30;;;;;;;27.53;40.62;99946.98;2176054;81;29797;-62
2021/05/21 06:58:46;;;;;;;5.70;2.90;;;;;;;28.34;39.92;99941.11;2178785;81;31131;-62
2021/05/21 07:01:48;;;;;;;3.12;2.77;;;;;;;28.74;38.60;99934.16;2186282;80;33116;-62
2021/05/21 07:04:49;;;;;;;2.98;2.45;;;;;;;29.15;38.07;99929.11;2208483;80;29657;-61
2021/05/21 07:07:51;;;;;;;2.85;2.40;;;;;;;29.48;36.89;99924.22;2208376;80;27639;-63
2021/05/21 07:10:54;;;;;;;4.12;2.60;;;;;;;29.91;36.53;99922.97;2198881;80;28588;-62
2021/05/21 07:13:57;;;;;;;3.52;2.37;;;;;;;30.18;36.24;99913.31;2179008;81;31375;-66
2021/05/21 07:16:59;;;;;;;3.63;2.40;;;;;;;30.47;35.35;99911.12;2179172;81;32950;-61
2021/05/21 07:20:02;;;;;;;3.95;2.58;;;;;;;30.61;34.02;99914.18;2179192;80;30030;-61
2021/05/21 07:23:04;;;;;;;4.40;2.47;;;;;;;30.41;34.51;99911.97;2141880;83;28287;-62
2021/05/21 07:26:06;;;;;;;3.02;2.62;;;;;;;30.61;34.10;99907.27;2141583;83;29816;-62
2021/05/21 07:29:08;;;;;;;4.95;2.05;;;;;;;30.59;33.62;99896.13;2121158;83;31081;-61
2021/05/21 07:32:10;;;;;;;2.98;2.10;;;;;;;30.95;33.89;99889.13;2188889;80;33810;-61
2021/05/21 07:35:12;;;;;;;3.30;2.33;;;;;;;31.04;32.90;99883.66;2208275;80;30632;-62
2021/05/21 07:38:15;;;;;;;2.45;1.95;;;;;;;30.74;32.30;99885.64;2208572;80;27534;-62
2021/05/21 07:41:22;;;;;;;3.70;2.10;;;;;;;30.87;31.98;99892.16;2200374;80;28502;-64
2021/05/21 07:44:27;;;;;;;2.22;1.98;;;;;;;30.68;31.82;99891.20;2179000;81;32181;-61
2021/05/21 07:47:29;;;;;;;2.30;2.10;;;;;;;30.27;31.04;99886.30;2178975;81;33365;-61
2021/05/21 07:50:36;;;;;;;2.55;2.00;;;;;;;30.23;30.79;99890.02;2179056;80;30377;-64
2021/05/21 07:53:35;;;;;;;1.90;1.70;;;;;;;30.47;31.71;99877.95;2178998;80;27649;-62
2021/05/21 07:56:37;;;;;;;3.30;2.05;;;;;;;30.79;30.61;99872.52;2178870;80;29770;-62
2021/05/21 07:59:39;;;;;;;6.45;2.05;;;;;;;30.78;30.22;99861.14;2178928;81;31473;-61
2021/05/21 08:02:42;;;;;;;2.55;2.17;;;;;;;30.86;30.56;99860.04;2196779;80;34068;-60
2021/05/21 08:05:44;;;;;;;3.33;1.72;;;;;;;31.03;28.97;99850.15;2207220;80;30389;-63
2021/05/21 08:08:46;;;;;;;5.17;2.00;;;;;;;31.10;29.76;99850.66;2208219;80;27577;-61
2021/05/21 08:11:48;;;;;;;3.50;1.82;;;;;;;31.25;29.12;99847.59;2208236;80;28467;-61
2021/05/21 08:14:49;;;;;;;2.30;1.82;;;;;;;31.34;29.73;99849.03;2208341;80;31160;-61
2021/05/21 08:17:51;;;;;;;5.35;1.82;;;;;;;31.61;29.15;99852.95;2195264;80;33080;-62
2021/05/21 08:20:53;;;;;;;1.98;1.70;;;;;;;31.77;28.96;99848.25;2152627;82;29495;-61
2021/05/21 08:23:55;;;;;;;4.72;2.33;;;;;;;31.56;28.81;99841.17;2137164;82;27537;-60
2021/05/21 08:26:57;;;;;;;3.72;1.50;;;;;;;31.27;28.62;99831.09;2161553;82;29013;-61
2021/05/21 08:29:59;;;;;;;1.55;1.35;;;;;;;31.14;28.37;99825.63;2169748;81;32112;-62
2021/05/21 08:33:01;;;;;;;2.10;1.40;;;;;;;31.26;28.47;99823.86;2167731;81;33374;-61
2021/05/21 08:36:03;;;;;;;5.50;1.70;;;;;;;31.45;27.74;99816.97;2146610;82;30550;-60
2021/05/21 08:39:06;;;;;;;4.50;1.40;;;;;;;31.45;27.78;99812.81;2180331;80;27762;-60
2021/05/21 08:42:09;;;;;;;2.12;1.50;;;;;;;31.49;27.28;99800.22;2158452;81;29576;-64
2021/05/21 08:45:13;;;;;;;2.00;1.40;;;;;;;31.61;27.34;99791.48;2156062;82;31841;-60
2021/05/21 08:48:18;;;;;;;1.40;1.30;;;;;;;31.79;27.55;99799.02;2156296;82;33306;-64
2021/05/21 08:51:19;;;;;;;5.12;1.67;;;;;;;31.95;27.62;99793.39;2185607;81;30600;-60
2021/05/21 08:54:21;;;;;;;2.45;1.10;;;;;;;32.07;27.08;99782.95;2205174;80;27531;-60
2021/05/21 08:57:23;;;;;;;2.37;1.00;;;;;;;32.07;26.97;99778.80;2193600;81;29020;-59
2021/05/21 09:00:25;;;;;;;0.93;0.88;;;;;;;32.04;26.84;99777.86;2184989;81;32171;-63
2021/05/21 09:03:29;;;;;;;1.45;1.10;;;;;;;31.92;26.42;99772.23;2182092;81;32433;-61
2021/05/21 09:06:31;;;;;;;1.40;1.30;;;;;;;31.63;25.77;99767.73;2148890;82;29312;-60
2021/05/21 09:09:45;;;;;;;1.90;1.05;;;;;;;31.26;25.38;99765.73;2164721;80;27624;-61
2021/05/21 09:12:51;;;;;;;2.30;0.93;;;;;;;30.84;26.26;99770.39;2192169;80;28524;-62
2021/05/21 09:15:53;;;;;;;1.40;1.02;;;;;;;30.51;25.36;99759.48;2214623;80;31684;-60
2021/05/21 09:19:01;;;;;;;1.85;1.12;;;;;;;30.07;25.70;99762.02;2184825;81;34228;-62
2021/05/21 09:22:08;;;;;;;1.27;0.98;;;;;;;29.87;26.37;99747.70;2184845;81;30296;-63
2021/05/21 09:25:14;;;;;;;3.67;0.95;;;;;;;29.64;25.46;99742.16;2181340;81;27597;-60
2021/05/21 09:28:37;;;;;;;2.62;0.93;;;;;;;29.01;25.49;99738.45;2150948;81;28805;-60
2021/05/21 09:31:49;;;;;;;1.50;0.90;;;;;;;28.57;26.00;99737.42;2171705;81;31017;-63
2021/05/21 09:35:19;;;;;;;2.33;1.10;;;;;;;28.12;26.34;99737.91;2171959;81;32848;-60
2021/05/21 09:38:21;;;;;;;3.02;1.22;;;;;;;27.75;26.21;99727.63;2178246;81;29436;-60
2021/05/21 09:41:25;;;;;;;6.53;1.30;;;;;;;27.43;26.95;99729.94;2180197;81;27637;-60
2021/05/21 09:44:27;;;;;;;2.90;1.12;;;;;;;27.21;26.57;99718.16;2212463;80;28673;-67
2021/05/21 09:48:03;;;;;;;3.70;1.00;;;;;;;26.93;27.01;99716.24;2181897;81;32107;-59
2021/05/21 09:51:05;;;;;;;1.80;1.22;;;;;;;26.66;27.66;99722.81;2154527;81;34113;-61
2021/05/21 09:54:08;;;;;;;2.83;0.90;;;;;;;26.39;28.07;99708.27;2173406;81;30075;-61
2021/05/21 09:57:12;;;;;;;1.05;0.90;;;;;;;26.32;28.69;99711.99;2156374;81;28103;-60
2021/05/21 10:00:15;;;;;;;1.07;0.78;;;;;;;26.27;28.69;99700.22;2133927;83;28634;-60
2021/05/21 10:03:17;;;;;;;2.33;0.75;;;;;;;26.15;28.26;99696.29;2149050;82;31121;-60
2021/05/21 10:06:22;;;;;;;2.22;1.00;;;;;;;25.98;28.36;99682.77;2172931;81;33817;-60
2021/05/21 10:09:24;;;;;;;3.15;1.75;;;;;;;25.74;28.96;99679.81;2134060;83;29329;-60
2021/05/21 10:12:27;;;;;;;3.58;2.37;;;;;;;25.51;28.44;99690.90;2124291;82;27656;-67
2021/05/21 10:15:30;;;;;;;2.75;1.17;;;;;;;25.29;29.18;99688.87;2133997;83;29783;-63
2021/05/21 10:18:35;;;;;;;0.93;0.88;;;;;;;25.16;29.60;99692.26;2110999;83;35030;-61
2021/05/21 10:21:37;;;;;;;0.80;0.80;;;;;;;25.01;29.47;99685.91;2144018;81;32937;-61
2021/05/21 10:24:42;;;;;;;3.35;0.98;;;;;;;24.79;29.68;99680.80;2134154;83;29698;-60
2021/05/21 10:27:48;;;;;;;1.10;1.00;;;;;;;24.64;30.14;99673.86;2143190;82;27590;-65
2021/05/21 10:30:50;;;;;;;1.00;1.00;;;;;;;24.56;30.41;99659.72;2172654;81;28512;-62
2021/05/21 10:34:18;;;;;;;0.80;0.60;;;;;;;24.55;30.91;99647.92;2160981;82;32131;-61
2021/05/21 10:37:35;;;;;;;2.98;0.90;;;;;;;24.48;30.73;99648.84;2170648;81;34151;-65
2021/05/21 10:40:37;;;;;;;1.30;0.80;;;;;;;24.35;30.56;99656.29;2177340;81;30087;-61
2021/05/21 10:43:48;;;;;;;2.27;0.60;;;;;;;24.21;30.91;99651.94;2177499;81;27565;-61
2021/05/21 10:46:54;;;;;;;3.20;1.52;;;;;;;24.10;31.44;99627.70;2175964;80;28625;-61
2021/05/21 10:50:07;;;;;;;2.20;1.00;;;;;;;23.96;31.04;99631.55;2174393;81;30792;-61
2021/05/21 10:53:09;;;;;;;2.85;0.88;;;;;;;23.79;31.34;99634.02;2198693;80;34004;-61
2021/05/21 10:56:11;;;;;;;1.55;0.70;;;;;;;23.86;31.92;99636.38;2200462;80;29363;-61
2021/05/21 10:59:13;;;;;;;1.42;0.90;;;;;;;23.86;31.65;99609.52;2177958;81;27621;-63
2021/05/21 11:02:18;;;;;;;1.72;0.70;;;;;;;23.89;31.67;99625.09;2146011;81;45758;-62
2021/05/21 11:05:37;;;;;;;0.90;0.60;;;;;;;24.00;31.60;99625.20;2166480;81;32124;-64
2021/05/21 11:08:46;;;;;;;0.55;0.47;;;;;;;24.11;31.36;99617.96;2153930;82;32959;-66
2021/05/21 11:12:04;;;;;;;1.98;0.70;;;;;;;24.31;31.31;99629.80;2156116;82;29462;-61
2021/05/21 11:15:08;;;;;;;3.05;0.72;;;;;;;24.47;31.06;99619.75;2169814;81;27578;-61
2021/05/21 11:18:22;;;;;;;5.08;0.85;;;;;;;24.58;30.79;99611.09;2173015;81;28854;-62
2021/05/21 11:21:24;;;;;;;1.20;0.60;;;;;;;24.66;30.22;99622.48;2172401;81;31720;-61
2021/05/21 11:24:38;;;;;;;2.72;0.75;;;;;;;24.62;30.31;99614.30;2172466;81;33336;-62
2021/05/21 11:27:40;;;;;;;4.28;0.88;;;;;;;24.72;30.83;99602.09;2186213;81;29331;-62
2021/05/21 11:30:47;;;;;;;0.82;0.82;;;;;;;24.86;30.87;99595.44;2179438;80;27580;-62
2021/05/21 11:33:51;;;;;;;1.52;0.70;;;;;;;25.01;30.96;99581.77;2179330;80;28610;-61
2021/05/21 11:36:56;;;;;;;2.80;0.80;;;;;;;25.15;30.95;99580.91;2173277;80;31000;-61
2021/05/21 11:40:01;;;;;;;;;;;;;;;25.38;31.10;99574.48;2176745;81;32931;-61
2021/05/21 11:43:05;;;;;;;0.72;0.60;;;;;;;25.67;30.95;99573.25;2179975;80;30071;-62
2021/05/21 11:46:16;;;;;;;1.57;0.98;;;;;;;25.67;29.96;99571.88;2179481;80;27645;-61
2021/05/21 11:49:23;;;;;;;1.30;0.70;;;;;;;25.68;30.15;99560.73;2205719;80;29943;-62
2021/05/21 11:52:24;;;;;;;6.97;0.78;;;;;;;25.64;29.71;99562.15;2178952;81;31918;-61
2021/05/21 11:55:33;;;;;;;0.60;0.60;;;;;;;25.62;29.91;99558.24;2195586;80;34146;-65
2021/05/21 11:58:39;;;;;;;1.20;0.47;;;;;;;25.65;29.90;99552.88;2213626;80;30446;-61
2021/05/21 12:01:54;;;;;;;3.22;1.10;;;;;;;25.69;29.96;99540.48;2183974;81;27549;-62
2021/05/21 12:04:57;;;;;;;2.17;0.82;;;;;;;25.70;29.83;99542.19;2178542;81;28604;-61
2021/05/21 12:08:00;;;;;;;2.35;0.68;;;;;;;25.80;30.17;99537.76;2172971;81;30957;-61
2021/05/21 12:11:02;;;;;;;3.63;0.80;;;;;;;25.98;30.01;99522.73;2184649;81;33709;-62
2021/05/21 12:14:11;;;;;;;0.98;0.90;;;;;;;26.12;29.57;99511.37;2210107;80;29927;-61
2021/05/21 12:17:13;;;;;;;2.05;0.62;;;;;;;26.17;29.55;99509.72;2178754;80;28068;-61
2021/05/21 12:20:17;;;;;;;1.25;0.40;;;;;;;26.31;29.59;99511.23;2147994;82;29971;-61
2021/05/21 12:23:23;;;;;;;3.27;0.57;;;;;;;26.48;29.56;99508.48;2182174;81;31131;-62
2021/05/21 12:26:30;;;;;;;2.70;0.60;;;;;;;26.61;28.73;99513.77;2125995;82;34072;-64
2021/05/21 12:29:35;;;;;;;1.67;0.80;;;;;;;26.58;28.26;99525.16;2184390;80;29311;-61
2021/05/21 12:32:50;;;;;;;1.25;0.70;;;;;;;26.47;28.31;99520.55;2179132;81;27673;-62
2021/05/21 12:36:11;;;;;;;0.90;0.50;;;;;;;26.44;28.27;99514.58;2157478;81;27606;-62
2021/05/21 12:39:22;;;;;;;1.85;0.60;;;;;;;26.34;26.72;99509.44;2179214;81;31063;-65
2021/05/21 12:42:24;;;;;;;1.85;0.70;;;;;;;26.08;28.02;99517.75;2128238;81;33021;-65
2021/05/21 12:45:26;;;;;;;1.47;0.57;;;;;;;26.13;28.30;99514.44;2184682;81;30449;-67
2021/05/21 12:48:44;;;;;;;4.58;0.75;;;;;;;26.14;28.25;99519.75;2184843;81;27645;-68
2021/05/21 12:51:51;;;;;;;1.20;0.80;;;;;;;26.18;28.17;99529.80;2182043;80;29061;-71
2021/05/21 12:54:53;;;;;;;2.45;0.50;;;;;;;25.92;27.20;99525.72;2171797;81;30996;-70
2021/05/21 12:57:57;;;;;;;5.08;0.85;;;;;;;25.78;26.99;99522.00;2169615;81;33066;-70
2021/05/21 13:01:02;;;;;;;4.75;1.22;;;;;;;25.67;26.99;99528.85;2135627;82;29318;-69
2021/05/21 13:04:23;;;;;;;5.00;0.82;;;;;;;25.66;27.29;99517.55;2133756;82;27695;-69
2021/05/21 13:07:27;;;;;;;6.58;0.88;;;;;;;25.67;27.31;99519.75;2112379;84;27594;-72
2021/05/21 13:10:40;;;;;;;0.90;0.80;;;;;;;25.68;27.37;99515.97;2164280;81;32364;-71
2021/05/21 13:13:44;;;;;;;0.98;0.60;;;;;;;25.61;27.14;99507.16;2167032;81;33792;-71
2021/05/21 13:16:53;;;;;;;0.72;0.70;;;;;;;25.59;27.64;99507.02;2177290;81;29342;-71
2021/05/21 13:20:03;;;;;;;3.17;1.00;;;;;;;25.68;27.80;99518.71;2177432;81;27601;-70
2021/05/21 13:23:09;;;;;;;0.62;0.50;;;;;;;25.75;27.93;99514.16;2149883;81;28743;-69
2021/05/21 13:26:13;;;;;;;2.58;0.70;;;;;;;25.84;28.06;99517.09;2172833;81;31159;-70
2021/05/21 13:29:18;;;;;;;3.75;0.82;;;;;;;25.89;27.87;99517.90;2170073;81;32988;-69
2021/05/21 13:32:22;;;;;;;1.80;0.95;;;;;;;25.87;27.90;99509.84;2145484;82;30023;-71
2021/05/21 13:35:27;;;;;;;1.17;0.80;;;;;;;25.88;28.16;99499.73;2133726;83;27550;-71
2021/05/21 13:38:30;;;;;;;1.02;0.60;;;;;;;25.92;27.33;99495.53;2148926;82;29479;-71
2021/05/21 13:41:35;;;;;;;5.40;1.00;;;;;;;25.86;27.54;99492.22;2161293;81;31635;-69
2021/05/21 13:44:40;;;;;;;1.17;0.78;;;;;;;25.85;27.38;99481.75;2160348;81;32943;-72
2021/05/21 13:47:42;;;;;;;1.82;0.85;;;;;;;25.81;27.24;99492.81;2177379;81;29437;-68
2021/05/21 13:50:46;;;;;;;2.67;0.82;;;;;;;25.76;27.13;99492.00;2177377;81;28139;-68
2021/05/21 13:53:48;;;;;;;2.80;1.13;;;;;;;25.72;27.42;99476.13;2176191;81;28828;-68
2021/05/21 13:56:53;;;;;;;0.90;0.65;;;;;;;25.68;27.50;99482.55;2167141;82;31157;-69
2021/05/21 13:59:56;;;;;;;3.42;0.85;;;;;;;25.57;27.11;99472.94;2139563;82;32965;-68
2021/05/21 14:02:57;;;;;;;4.55;0.78;;;;;;;25.46;27.67;99466.59;2175944;81;29272;-66
2021/05/21 14:05:59;;;;;;;4.95;1.05;;;;;;;25.42;27.53;99468.02;2178555;80;27669;-65
2021/05/21 14:09:01;;;;;;;2.45;0.95;;;;;;;25.31;27.01;99467.97;2178850;81;29351;-67
2021/05/21 14:12:05;;;;;;;1.57;0.90;;;;;;;25.14;27.43;99455.86;2179033;81;31049;-69
2021/05/21 14:15:10;;;;;;;1.02;0.82;;;;;;;25.01;27.55;99442.84;2188336;80;33023;-67
2021/05/21 14:18:12;;;;;;;0.85;0.78;;;;;;;24.97;28.00;99449.77;2204863;80;30025;-67
2021/05/21 14:21:14;;;;;;;4.37;0.80;;;;;;;24.86;27.19;99441.51;2194588;80;27580;-65